Archival Weather

Norman Y Mineta San Jose Intl

San Jose, California (KSJC)

Report from: Saturday, February 17, 2024 6:53 AM PST
Current time: Monday, June 24, 2024 2:40 AM PDT

Current weather – Weather history – Daily summaries
Weather forecast

Temperature13.3°C (55.9°F)
Dew point6.7°C (44.1°F)
Winds 5 kts (2.6 m/s, 5.8 mph) South (180°)
Visibility10 mi. (16.1 km)
Clouds Few clouds 3,800 ft. (1,158 m)
Scattered clouds 4,500 ft. (1,372 m)
Ceiling: Broken clouds 10,000 ft. (3,048 m)
Altimeter29.98 in.Hg (1015 mB)
Relative humidity64 %
Density altitude-122 ft. (-37 m)
Sea-level pressure101.5 kPa (1015 mB, 29.98 in.Hg)
Remarks Automated weather observing station with precipitation discriminator
Pressure falling more slowly
Flight conditions Visual Meteorological Conditions
Raw dataKSJC 171453Z 18005KT 10SM FEW038 SCT045 BKN100 13/07 A2998 RMK AO2 SLP151 T01330067 56009
An error has occurred. This application may no longer respond until reloaded. Reload 🗙